EW3726 Weather Reports


Display with metric or nautical units.
time (UTC)temp
F
wind
direction
speed
MPH
gust
MPH
rain 1hr
in
rain 24hr
in
rain mn
in
humidity
%
barometer
mb
20190923134628 78 219 4.0 10.0 0.00 0.00 0.00 74 1009.7
20190923133202 77 166 2.0 9.0 0.00 0.00 0.00 76 1009.8
20190923131616 76 116 2.0 5.0 0.00 0.00 0.00 76 1010.0
20190923130105 74 255 1.0 7.0 0.00 0.00 0.00 80 1010.2
20190923124707 73 200 1.0 9.0 0.00 0.00 0.00 81 1010.3
20190923123108 73 213 2.0 5.0 0.00 0.00 0.00 82 1010.4
20190923121559 70 207 0.0 4.0 0.00 0.00 0.00 88 1010.4
20190923120045 67 165 0.0 0.0 0.00 0.00 0.00 92 1010.5
20190923114548 67 128 0.0 0.0 0.00 0.00 0.00 93 1010.5
20190923113126 66 110 0.0 1.0 0.00 0.00 0.00 93 1010.5
20190923111619 66 109 0.0 0.0 0.00 0.00 0.00 94 1010.6
20190923110039 65 110 0.0 0.0 0.00 0.00 0.00 93 1010.6
20190923104535 65 110 0.0 0.0 0.00 0.00 0.00 93 1010.7
20190923103036 65 110 0.0 0.0 0.00 0.00 0.00 93 1010.8
20190923101539 65 109 0.0 0.0 0.00 0.00 0.00 92 1010.8
20190923100031 66 109 0.0 0.0 0.00 0.00 0.00 92 1010.9
20190923094544 66 109 0.0 0.0 0.00 0.00 0.00 92 1010.7
20190923093107 66 110 0.0 1.0 0.00 0.00 0.00 91 1010.8
20190923091540 66 100 0.0 0.0 0.00 0.00 0.00 90 1010.9
20190923090053 67 100 0.0 1.0 0.00 0.00 0.00 90 1010.9
20190923084538 66 100 0.0 1.0 0.00 0.00 0.00 91 1011.0
20190923083025 66 100 0.0 0.0 0.00 0.00 0.00 90 1011.1
20190923081527 66 100 0.0 1.0 0.00 0.00 0.00 90 1011.2
20190923080012 66 88 0.0 1.0 0.00 0.00 0.00 89 1011.3
20190923074505 66 89 0.0 0.0 0.00 0.00 0.00 88 1011.3
20190923073017 67 89 0.0 1.0 0.00 0.00 0.00 87 1011.4
20190923071749 67 88 0.0 2.0 0.00 0.00 0.00 86 1011.6
20190923070335 67 173 0.0 0.0 0.00 0.00 0.00 86 1011.8
20190923064654 67 174 0.0 1.0 0.00 0.00 0.00 85 1011.8
20190923063214 67 136 0.0 1.0 0.00 0.00 0.00 85 1012.0
20190923061641 68 206 0.0 0.0 0.00 0.00 0.00 84 1012.2
20190923060129 68 172 0.0 2.0 0.00 0.00 0.00 83 1012.4
20190923054605 69 157 0.0 1.0 0.00 0.00 0.00 82 1012.4
20190923053137 69 115 0.0 2.0 0.00 0.00 0.00 82 1012.6
20190923051609 69 128 0.0 1.0 0.00 0.00 0.00 81 1012.8
20190923050154 69 107 0.0 1.0 0.00 0.00 0.00 80 1012.9
20190923044623 70 223 0.0 2.0 0.00 0.00 0.00 79 1013.1
20190923043131 70 193 0.0 3.0 0.00 0.00 0.00 78 1013.1
20190923041642 71 210 0.0 6.0 0.00 0.00 0.00 77 1013.3
20190923040105 71 205 0.0 6.0 0.00 0.00 0.00 77 1013.4
20190923034540 71 189 2.0 6.0 0.00 0.00 0.00 77 1013.5
20190923033125 71 208 1.0 6.0 0.00 0.00 0.00 77 1013.7
20190923031548 71 195 1.0 6.0 0.00 0.00 0.00 77 1013.9
20190923030031 71 238 0.0 4.0 0.00 0.00 0.00 77 1014.0
20190923024556 71 205 0.0 4.0 0.00 0.00 0.00 77 1014.2
20190923023034 72 224 0.0 6.0 0.00 0.00 0.00 75 1014.2
20190923021539 72 145 2.0 6.0 0.00 0.00 0.00 75 1014.4
20190923020035 72 185 2.0 6.0 0.00 0.00 0.00 74 1014.5
20190923014532 73 200 2.0 6.0 0.00 0.00 0.00 72 1014.6
20190923013015 73 269 0.0 4.0 0.00 0.00 0.00 71 1014.7
20190923011521 74 238 1.0 7.0 0.00 0.00 0.00 70 1014.8
20190923010034 74 205 1.0 0.0 0.00 0.00 0.00 68 1014.9
20190923004525 75 200 2.0 5.0 0.00 0.00 0.00 67 1015.0
20190923003043 75 219 1.0 4.0 0.00 0.00 0.00 66 1015.0
20190923001516 75 180 1.0 3.0 0.00 0.00 0.00 66 1015.0
20190923000023 76 198 0.0 2.0 0.00 0.00 0.00 66 1014.9
20190922234527 76 229 0.0 3.0 0.00 0.00 0.00 65 1014.9
20190922233012 77 212 0.0 3.0 0.00 0.00 0.00 64 1014.9
20190922231512 77 243 1.0 3.0 0.00 0.00 0.00 62 1014.9
20190922230014 78 225 0.0 3.0 0.00 0.00 0.00 60 1014.9
20190922224509 79 204 1.0 5.0 0.00 0.00 0.00 58 1015.0
20190922223008 81 238 1.0 4.0 0.00 0.00 0.00 55 1015.0
20190922221514 82 224 1.0 3.0 0.00 0.00 0.00 52 1015.0
20190922220008 83 209 2.0 5.0 0.00 0.00 0.00 49 1015.0
20190922214514 84 181 0.0 5.0 0.00 0.00 0.00 48 1015.1
20190922213002 84 240 2.0 7.0 0.00 0.00 0.00 47 1015.1
20190922211747 84 181 4.0 8.0 0.00 0.00 0.00 45 1015.2
20190922210313 85 200 6.0 15.0 0.00 0.00 0.00 44 1015.3
20190922204655 85 174 3.0 9.0 0.00 0.00 0.00 45 1015.3
20190922203150 86 208 3.0 8.0 0.00 0.00 0.00 42 1015.4
20190922201735 86 232 2.0 6.0 0.00 0.00 0.00 42 1015.4
20190922200115 86 262 3.0 9.0 0.00 0.00 0.00 41 1015.5
20190922194623 86 221 2.0 9.0 0.00 0.00 0.00 41 1015.8
20190922193142 86 195 4.0 11.0 0.00 0.00 0.00 39 1015.9
20190922191645 87 264 2.0 10.0 0.00 0.00 0.00 39 1016.3
20190922190119 86 264 3.0 12.0 0.00 0.00 0.00 38 1016.6
20190922184632 86 264 1.0 9.0 0.00 0.00 0.00 38 1016.7
20190922183140 85 219 3.0 9.0 0.00 0.00 0.00 37 1016.8
20190922181635 86 240 5.0 9.0 0.00 0.00 0.00 35 1017.0
20190922180206 86 196 4.0 9.0 0.00 0.00 0.00 35 1017.1
20190922174626 85 198 2.0 9.0 0.00 0.00 0.00 35 1017.3
20190922173128 85 226 4.0 10.0 0.00 0.00 0.00 36 1017.5
20190922171641 85 278 6.0 12.0 0.00 0.00 0.00 36 1017.5
20190922170111 84 80 3.0 13.0 0.00 0.00 0.00 39 1017.8
20190922164542 84 266 4.0 10.0 0.00 0.00 0.00 41 1018.2
20190922163043 83 202 3.0 10.0 0.00 0.00 0.00 42 1018.5
20190922161528 83 271 3.0 9.0 0.00 0.00 0.00 46 1018.5
20190922160030 82 266 1.0 7.0 0.00 0.00 0.00 52 1018.8
20190922154537 81 198 4.0 8.0 0.00 0.00 0.00 50 1019.0
20190922153030 81 189 1.0 5.0 0.00 0.00 0.00 53 1019.3
20190922151526 79 120 1.0 4.0 0.00 0.00 0.00 56 1019.4
20190922150144 77 144 1.0 4.0 0.00 0.00 0.00 59 1019.6
20190922144704 76 237 0.0 3.0 0.00 0.00 0.00 60 1019.8
20190922143150 75 122 1.0 4.0 0.00 0.00 0.00 63 1019.9
20190922141640 73 8 1.0 3.0 0.00 0.00 0.00 67 1020.1
20190922140134 71 19 0.0 2.0 0.00 0.00 0.00 71 1020.2